createdAt,value
2022-12-28T00:02:25.440Z,7.60
2022-12-28T00:04:57.201Z,7.70
2022-12-28T00:07:25.535Z,7.70
2022-12-28T00:09:55.575Z,7.70
2022-12-28T00:12:22.733Z,7.70
2022-12-28T00:14:50.875Z,7.70
2022-12-28T00:17:20.598Z,7.70
2022-12-28T00:19:47.834Z,7.70
2022-12-28T00:22:14.818Z,7.70
2022-12-28T00:24:42.940Z,7.70
2022-12-28T00:27:17.213Z,7.70
2022-12-28T00:29:46.389Z,7.70
2022-12-28T00:32:14.440Z,7.80
2022-12-28T00:34:47.852Z,7.70
2022-12-28T00:37:19.046Z,7.80
2022-12-28T00:39:48.868Z,7.80
2022-12-28T00:42:17.019Z,7.80
2022-12-28T00:44:46.580Z,7.80
2022-12-28T00:47:20.463Z,7.80
2022-12-28T00:49:48.038Z,7.80
2022-12-28T00:52:15.089Z,7.80
2022-12-28T00:54:42.416Z,7.80
2022-12-28T00:57:11.874Z,7.80
2022-12-28T00:59:40.980Z,7.90
2022-12-28T01:02:12.993Z,7.90
2022-12-28T01:04:41.147Z,7.90
2022-12-28T01:07:09.434Z,7.90
2022-12-28T01:09:42.287Z,8.00
2022-12-28T01:12:09.448Z,8.00
2022-12-28T01:14:46.706Z,8.00
2022-12-28T01:17:17.056Z,8.00
2022-12-28T01:19:51.980Z,8.10
2022-12-28T01:22:22.803Z,8.10
2022-12-28T01:24:50.921Z,8.10
2022-12-28T01:27:19.383Z,8.20
2022-12-28T01:29:49.881Z,8.20
2022-12-28T01:32:18.080Z,8.20
2022-12-28T01:36:00.703Z,8.30
2022-12-28T01:38:54.014Z,8.30
2022-12-28T01:41:23.127Z,8.30
2022-12-28T01:43:53.617Z,8.30
2022-12-28T01:46:50.290Z,8.30
2022-12-28T01:49:32.117Z,8.40
2022-12-28T01:52:10.336Z,8.40
2022-12-28T01:54:56.830Z,8.40
2022-12-28T01:57:31.914Z,8.30
2022-12-28T02:00:15.789Z,8.30
2022-12-28T02:02:54.997Z,8.20
2022-12-28T02:05:27.288Z,8.20
2022-12-28T02:08:11.890Z,8.20
2022-12-28T02:10:45.815Z,8.20
2022-12-28T02:13:17.175Z,8.20
2022-12-28T02:15:45.583Z,8.20
2022-12-28T02:18:14.924Z,8.20
2022-12-28T02:21:11.034Z,8.30
2022-12-28T02:24:12.197Z,8.20
2022-12-28T02:26:55.580Z,8.30
2022-12-28T02:30:11.490Z,8.30
2022-12-28T02:33:17.629Z,8.30
2022-12-28T02:36:22.697Z,8.40
2022-12-28T02:39:05.987Z,8.40
2022-12-28T02:41:37.165Z,8.40
2022-12-28T02:44:04.868Z,8.50
2022-12-28T02:46:53.543Z,8.50
2022-12-28T02:49:46.132Z,8.50
2022-12-28T02:52:32.433Z,8.50
2022-12-28T02:55:42.589Z,8.50
2022-12-28T02:58:50.298Z,8.50
2022-12-28T03:01:57.380Z,8.50
2022-12-28T03:05:18.076Z,8.50
2022-12-28T03:08:20.003Z,8.50
2022-12-28T03:11:09.796Z,8.50
2022-12-28T03:14:02.043Z,8.50
2022-12-28T03:16:58.602Z,8.50
2022-12-28T03:20:05.873Z,8.60
2022-12-28T03:22:54.583Z,8.60
2022-12-28T03:25:46.480Z,8.60
2022-12-28T03:28:38.199Z,8.60
2022-12-28T03:31:12.889Z,8.60
2022-12-28T03:33:49.617Z,8.70
2022-12-28T03:36:30.075Z,8.70
2022-12-28T03:39:20.113Z,8.70
2022-12-28T03:42:16.207Z,8.70
2022-12-28T03:44:54.141Z,8.80
2022-12-28T03:47:26.581Z,8.80
2022-12-28T03:49:59.003Z,8.90
2022-12-28T03:52:28.197Z,8.80
2022-12-28T03:54:59.308Z,8.80
2022-12-28T03:57:27.701Z,8.70
2022-12-28T03:59:58.664Z,8.80
2022-12-28T04:02:26.082Z,8.80
2022-12-28T04:04:56.856Z,8.80
2022-12-28T04:07:23.858Z,8.80
2022-12-28T04:14:17.739Z,8.70
2022-12-28T04:16:48.324Z,8.70
2022-12-28T04:19:20.550Z,8.80
2022-12-28T04:21:48.766Z,8.80
2022-12-28T04:24:15.913Z,8.70
2022-12-28T04:26:45.147Z,8.70
2022-12-28T04:29:13.669Z,8.60
2022-12-28T04:32:06.404Z,8.70
2022-12-28T04:34:48.195Z,8.60
2022-12-28T04:37:18.313Z,8.60
2022-12-28T04:39:55.980Z,8.60
2022-12-28T04:42:26.642Z,8.50
2022-12-28T04:44:55.832Z,8.50
2022-12-28T04:47:29.897Z,8.50
2022-12-28T04:49:58.226Z,8.50
2022-12-28T04:52:26.281Z,8.60
2022-12-28T04:54:55.176Z,8.60
2022-12-28T04:57:25.602Z,8.60
2022-12-28T05:00:49.325Z,8.60
2022-12-28T05:03:45.186Z,8.70
2022-12-28T05:06:19.154Z,8.70
2022-12-28T05:08:47.627Z,8.70
2022-12-28T05:11:41.846Z,8.80
2022-12-28T05:14:19.071Z,8.80
2022-12-28T05:16:51.334Z,8.90
2022-12-28T05:19:21.323Z,9.00
2022-12-28T05:26:17.904Z,9.10
2022-12-28T05:28:49.218Z,9.10
2022-12-28T05:31:23.776Z,9.10
2022-12-28T05:33:51.503Z,9.20
2022-12-28T05:36:22.822Z,9.20
2022-12-28T05:38:51.893Z,9.10
2022-12-28T05:41:21.691Z,9.20
2022-12-28T05:43:49.648Z,9.20
2022-12-28T05:46:24.595Z,9.20
2022-12-28T05:48:55.197Z,9.20
2022-12-28T05:51:24.883Z,9.30
2022-12-28T05:53:53.469Z,9.30
2022-12-28T05:56:24.751Z,9.40
2022-12-28T05:58:58.556Z,9.40
2022-12-28T06:01:28.776Z,9.40
2022-12-28T06:03:58.747Z,9.40
2022-12-28T06:06:26.575Z,9.40
2022-12-28T06:08:54.118Z,9.40
2022-12-28T06:11:24.384Z,9.40
2022-12-28T06:13:53.261Z,9.40
2022-12-28T06:16:32.253Z,9.40
2022-12-28T06:19:09.064Z,9.40
2022-12-28T06:21:38.597Z,9.40
2022-12-28T06:24:07.109Z,9.50
2022-12-28T06:26:36.819Z,9.50
2022-12-28T06:29:04.603Z,9.40
2022-12-28T06:31:34.753Z,9.50
2022-12-28T06:34:03.827Z,9.60
2022-12-28T06:36:39.269Z,9.60
2022-12-28T06:39:10.452Z,9.60
2022-12-28T06:41:41.303Z,9.70
2022-12-28T06:44:12.493Z,9.70
2022-12-28T06:51:16.502Z,9.70
2022-12-28T06:58:04.875Z,9.70
2022-12-28T07:00:32.155Z,9.70
2022-12-28T07:03:00.328Z,9.80
2022-12-28T07:05:28.832Z,9.80
2022-12-28T07:07:55.760Z,9.80
2022-12-28T07:10:23.828Z,9.90
2022-12-28T07:12:54.151Z,9.80
2022-12-28T07:15:23.413Z,9.80
2022-12-28T07:17:52.634Z,9.80
2022-12-28T07:20:19.676Z,9.80
2022-12-28T07:22:48.647Z,9.80
2022-12-28T07:25:17.384Z,9.80
2022-12-28T07:27:45.483Z,9.80
2022-12-28T07:30:13.515Z,9.80
2022-12-28T07:32:40.973Z,9.80
2022-12-28T07:35:08.345Z,9.80
2022-12-28T07:37:39.492Z,9.60
2022-12-28T07:40:07.214Z,9.60
2022-12-28T07:42:34.274Z,9.40
2022-12-28T07:45:06.017Z,9.40
2022-12-28T07:47:33.580Z,9.40
2022-12-28T07:50:01.876Z,9.20
2022-12-28T07:52:30.530Z,9.20
2022-12-28T07:54:57.602Z,9.10
2022-12-28T07:57:25.552Z,9.10
2022-12-28T07:59:52.814Z,9.10
2022-12-28T08:02:20.761Z,9.10
2022-12-28T08:04:52.210Z,9.10
2022-12-28T08:07:22.424Z,9.10
2022-12-28T08:10:01.826Z,9.10
2022-12-28T08:12:30.894Z,9.10
2022-12-28T08:15:01.480Z,9.10
2022-12-28T08:17:28.708Z,9.00
2022-12-28T08:19:58.021Z,9.00
2022-12-28T08:22:24.961Z,9.00
2022-12-28T08:24:52.043Z,8.90
2022-12-28T08:27:22.762Z,8.90
2022-12-28T08:29:52.722Z,8.90
2022-12-28T08:32:19.762Z,8.90
2022-12-28T08:34:50.303Z,8.90
2022-12-28T08:41:21.638Z,8.90
2022-12-28T08:43:52.752Z,8.90
2022-12-28T08:46:22.414Z,8.90
2022-12-28T08:48:52.883Z,8.90
2022-12-28T08:51:24.787Z,8.90
2022-12-28T08:53:51.831Z,8.90
2022-12-28T08:56:22.508Z,9.00
2022-12-28T08:58:50.249Z,9.00
2022-12-28T09:01:23.673Z,8.90
2022-12-28T09:03:55.938Z,8.90
2022-12-28T09:06:26.354Z,9.00
2022-12-28T09:09:07.313Z,9.00
2022-12-28T09:11:37.049Z,9.00
2022-12-28T09:14:07.939Z,8.90
2022-12-28T09:16:36.403Z,8.90
2022-12-28T09:19:05.651Z,8.90
2022-12-28T09:21:38.229Z,8.90
2022-12-28T09:28:07.376Z,9.00
2022-12-28T09:30:42.336Z,9.00
2022-12-28T09:33:29.118Z,9.10
2022-12-28T09:36:08.030Z,9.10
2022-12-28T09:38:36.812Z,9.20
2022-12-28T09:41:12.638Z,9.20
2022-12-28T09:43:42.691Z,9.20
2022-12-28T09:46:11.750Z,9.20
2022-12-28T09:48:41.628Z,9.20
2022-12-28T09:51:10.267Z,9.20
2022-12-28T09:53:38.982Z,9.30
2022-12-28T09:56:19.650Z,9.30
2022-12-28T09:58:48.180Z,9.30
2022-12-28T10:01:18.814Z,9.40
2022-12-28T10:03:47.098Z,9.30
2022-12-28T10:06:37.080Z,9.30
2022-12-28T10:09:13.277Z,9.30
2022-12-28T10:11:46.073Z,9.40
2022-12-28T10:14:30.313Z,9.40
2022-12-28T10:17:01.655Z,9.50
2022-12-28T10:19:30.082Z,9.50
2022-12-28T10:22:11.593Z,9.50
2022-12-28T10:24:40.845Z,9.50
2022-12-28T10:27:13.368Z,9.50
2022-12-28T10:29:43.900Z,9.50
2022-12-28T10:32:15.344Z,9.50
2022-12-28T10:35:01.665Z,9.50
2022-12-28T10:37:39.830Z,9.50
2022-12-28T10:40:20.874Z,9.50
2022-12-28T10:42:55.468Z,9.50
2022-12-28T10:45:36.718Z,9.60
2022-12-28T10:48:21.106Z,9.60
2022-12-28T10:51:02.774Z,9.60
2022-12-28T10:53:44.642Z,9.60
2022-12-28T10:56:14.223Z,9.60
2022-12-28T10:58:50.341Z,9.60
2022-12-28T11:01:31.523Z,9.60
2022-12-28T11:04:26.644Z,9.70
2022-12-28T11:07:02.710Z,9.70
2022-12-28T11:09:33.860Z,9.70
2022-12-28T11:12:24.638Z,9.70
2022-12-28T11:15:23.708Z,9.80
2022-12-28T11:18:02.565Z,9.80
2022-12-28T11:20:39.502Z,9.80
2022-12-28T11:23:09.234Z,9.80
2022-12-28T11:25:39.167Z,9.80
2022-12-28T11:28:22.432Z,9.90
2022-12-28T11:30:57.288Z,9.80
2022-12-28T11:33:46.727Z,9.90
2022-12-28T11:36:21.230Z,9.80
2022-12-28T11:38:51.334Z,9.90
2022-12-28T11:41:30.283Z,9.90
2022-12-28T11:44:07.420Z,9.90
2022-12-28T11:46:35.626Z,9.90
2022-12-28T11:49:25.783Z,9.90
2022-12-28T11:52:34.350Z,9.90
2022-12-28T11:55:26.517Z,10.00
2022-12-28T11:57:55.171Z,10.00
2022-12-28T12:00:25.225Z,10.00
2022-12-28T12:03:44.367Z,10.00
2022-12-28T12:06:15.440Z,10.00
2022-12-28T12:08:54.289Z,9.90
2022-12-28T12:11:28.605Z,10.00
2022-12-28T12:13:59.123Z,10.00
2022-12-28T12:16:47.250Z,10.00
2022-12-28T12:19:28.933Z,10.00
2022-12-28T12:22:12.725Z,10.00
2022-12-28T12:25:02.529Z,10.00
2022-12-28T12:27:58.775Z,10.00
2022-12-28T12:30:29.353Z,10.00
2022-12-28T12:33:15.810Z,10.10
2022-12-28T12:36:11.825Z,10.10
2022-12-28T12:39:08.754Z,10.10
2022-12-28T12:41:45.915Z,10.10
2022-12-28T12:44:37.643Z,10.10
2022-12-28T12:47:37.684Z,10.20
2022-12-28T12:50:57.684Z,10.20
2022-12-28T12:53:52.452Z,10.20
2022-12-28T12:56:37.851Z,10.20
2022-12-28T12:59:34.575Z,10.30
2022-12-28T13:02:38.777Z,10.20
2022-12-28T13:05:14.477Z,10.30
2022-12-28T13:07:42.615Z,10.30
2022-12-28T13:10:27.920Z,10.30
2022-12-28T13:13:00.638Z,10.30
2022-12-28T13:15:29.753Z,10.30
2022-12-28T13:18:44.207Z,10.40
2022-12-28T13:21:12.749Z,10.40
2022-12-28T13:23:49.435Z,10.40
2022-12-28T13:26:17.173Z,10.40
2022-12-28T13:29:00.332Z,10.50
2022-12-28T13:31:38.008Z,10.50
2022-12-28T13:34:21.623Z,10.60
2022-12-28T13:36:59.556Z,10.60
2022-12-28T13:39:30.418Z,10.60
2022-12-28T13:42:14.040Z,10.60
2022-12-28T13:44:55.553Z,10.60
2022-12-28T13:47:35.923Z,10.60
2022-12-28T13:50:12.150Z,10.60
2022-12-28T13:52:41.346Z,10.60
2022-12-28T13:55:16.599Z,10.60
2022-12-28T13:57:54.170Z,10.60
2022-12-28T14:00:27.488Z,10.60
2022-12-28T14:02:56.694Z,10.70
2022-12-28T14:05:30.769Z,10.70
2022-12-28T14:07:59.446Z,10.70
2022-12-28T14:10:29.085Z,10.70
2022-12-28T14:12:58.801Z,10.70
2022-12-28T14:15:26.427Z,10.70
2022-12-28T14:17:54.798Z,10.70
2022-12-28T14:20:23.194Z,10.70
2022-12-28T14:22:51.369Z,10.70
2022-12-28T14:25:25.261Z,10.70
2022-12-28T14:28:10.052Z,10.60
2022-12-28T14:30:42.938Z,10.60
2022-12-28T14:33:25.418Z,10.60
2022-12-28T14:36:28.352Z,10.60
2022-12-28T14:39:49.703Z,10.60
2022-12-28T14:42:42.177Z,10.60
2022-12-28T14:46:07.316Z,10.60
2022-12-28T14:48:37.469Z,10.60
2022-12-28T14:51:25.039Z,10.50
2022-12-28T14:54:20.172Z,10.50
2022-12-28T14:56:52.165Z,10.40
2022-12-28T14:59:34.421Z,10.50
2022-12-28T15:02:03.868Z,10.50
2022-12-28T15:04:39.273Z,10.40
2022-12-28T15:07:08.921Z,10.40
2022-12-28T15:09:36.692Z,10.50
2022-12-28T15:12:14.804Z,10.40
2022-12-28T15:14:42.512Z,10.40
2022-12-28T15:17:10.297Z,10.40
2022-12-28T15:19:39.568Z,10.40
2022-12-28T15:22:08.922Z,10.40
2022-12-28T15:24:37.015Z,10.30
2022-12-28T15:27:05.756Z,10.40
2022-12-28T15:30:03.900Z,10.30
2022-12-28T15:32:19.948Z,10.20
2022-12-28T15:34:49.201Z,10.20
2022-12-28T15:37:20.218Z,10.20
2022-12-28T15:43:39.252Z,10.10
2022-12-28T15:46:11.194Z,10.10
2022-12-28T15:48:47.317Z,10.00
2022-12-28T15:51:15.040Z,10.00
2022-12-28T15:53:44.352Z,9.90
2022-12-28T15:56:25.962Z,9.90
2022-12-28T15:58:54.323Z,9.90
2022-12-28T16:01:24.531Z,9.90
2022-12-28T16:03:52.799Z,9.90
2022-12-28T16:06:22.952Z,9.90
2022-12-28T16:08:53.474Z,10.00
2022-12-28T16:11:30.096Z,9.90
2022-12-28T16:14:01.134Z,9.90
2022-12-28T16:16:34.592Z,9.90
2022-12-28T16:19:02.668Z,10.00
2022-12-28T16:21:30.064Z,9.90
2022-12-28T16:23:58.509Z,9.90
2022-12-28T16:26:25.750Z,9.90
2022-12-28T16:28:52.856Z,9.90
2022-12-28T16:31:29.667Z,10.00
2022-12-28T16:33:59.524Z,9.90
2022-12-28T16:36:27.717Z,9.90
2022-12-28T16:38:55.477Z,9.80
2022-12-28T16:41:23.140Z,9.80
2022-12-28T16:43:54.323Z,9.80
2022-12-28T16:46:21.297Z,9.80
2022-12-28T16:48:49.132Z,9.80
2022-12-28T16:51:16.036Z,9.80
2022-12-28T16:53:44.898Z,9.70
2022-12-28T16:56:11.859Z,9.70
2022-12-28T16:58:38.925Z,9.70
2022-12-28T17:01:09.061Z,9.70
2022-12-28T17:03:37.859Z,9.70
2022-12-28T17:06:06.625Z,9.70
2022-12-28T17:08:35.568Z,9.70
2022-12-28T17:11:06.553Z,9.70
2022-12-28T17:13:34.115Z,9.80
2022-12-28T17:16:02.573Z,9.80
2022-12-28T17:19:47.216Z,9.90
2022-12-28T17:22:17.768Z,9.90
2022-12-28T17:24:44.735Z,9.90
2022-12-28T17:27:19.112Z,9.90
2022-12-28T17:29:46.634Z,9.90
2022-12-28T17:32:16.738Z,9.90
2022-12-28T17:34:44.012Z,9.80
2022-12-28T17:37:11.186Z,9.80
2022-12-28T17:39:40.606Z,9.70
2022-12-28T17:42:09.221Z,9.70
2022-12-28T17:44:36.129Z,9.80
2022-12-28T17:47:03.034Z,9.80
2022-12-28T17:49:30.609Z,9.80
2022-12-28T17:51:57.837Z,9.90
2022-12-28T17:54:25.106Z,9.90
2022-12-28T17:56:51.890Z,9.90
2022-12-28T17:59:18.796Z,10.00
2022-12-28T18:01:45.850Z,10.00
2022-12-28T18:04:14.350Z,9.90
2022-12-28T18:06:46.213Z,10.00
2022-12-28T18:09:14.176Z,9.90
2022-12-28T18:11:42.099Z,10.00
2022-12-28T18:14:13.032Z,10.00
2022-12-28T18:16:40.029Z,10.00
2022-12-28T18:19:08.015Z,10.10
2022-12-28T18:21:35.159Z,10.10
2022-12-28T18:24:04.376Z,10.10
2022-12-28T18:26:31.369Z,10.20
2022-12-28T18:28:58.609Z,10.20
2022-12-28T18:31:27.736Z,10.30
2022-12-28T18:33:54.855Z,10.30
2022-12-28T18:36:22.126Z,10.20
2022-12-28T18:38:50.078Z,10.30
2022-12-28T18:41:22.406Z,10.30
2022-12-28T18:43:51.629Z,10.40
2022-12-28T18:46:19.165Z,10.40
2022-12-28T18:48:46.285Z,10.40
2022-12-28T18:51:19.633Z,10.40
2022-12-28T18:53:47.081Z,10.50
2022-12-28T18:56:16.619Z,10.50
2022-12-28T18:58:44.317Z,10.50
2022-12-28T19:01:40.129Z,10.50
2022-12-28T19:04:08.236Z,10.60
2022-12-28T19:06:36.659Z,10.60
2022-12-28T19:09:06.062Z,10.70
2022-12-28T19:11:33.647Z,10.70
2022-12-28T19:14:03.109Z,10.70
2022-12-28T19:16:32.356Z,10.70
2022-12-28T19:19:00.148Z,10.70
2022-12-28T19:21:38.764Z,10.60
2022-12-28T19:24:11.421Z,10.60
2022-12-28T19:26:38.346Z,10.60
2022-12-28T19:29:05.400Z,10.60
2022-12-28T19:31:33.070Z,10.60
2022-12-28T19:34:03.815Z,10.60
2022-12-28T19:36:34.193Z,10.60
2022-12-28T19:39:01.143Z,10.70
2022-12-28T19:41:28.018Z,10.70
2022-12-28T19:43:55.060Z,10.80
2022-12-28T19:46:31.584Z,10.80
2022-12-28T19:49:04.417Z,10.80
2022-12-28T19:51:33.112Z,10.90
2022-12-28T19:54:01.255Z,10.90
2022-12-28T19:56:38.537Z,11.00
2022-12-28T19:59:31.388Z,11.10
2022-12-28T20:01:58.517Z,11.10
2022-12-28T20:04:26.318Z,11.10
2022-12-28T20:06:54.759Z,11.10
2022-12-28T20:09:22.528Z,11.20
2022-12-28T20:11:49.397Z,11.10
2022-12-28T20:14:23.204Z,11.10
2022-12-28T20:16:52.010Z,11.20
2022-12-28T20:19:20.152Z,11.20
2022-12-28T20:21:49.295Z,11.20
2022-12-28T20:24:17.542Z,11.20
2022-12-28T20:26:44.401Z,11.30
2022-12-28T20:29:13.427Z,11.30
2022-12-28T20:31:40.433Z,11.30
2022-12-28T20:34:07.402Z,11.30
2022-12-28T20:36:34.648Z,11.40
2022-12-28T20:39:02.463Z,11.30
2022-12-28T20:41:50.601Z,11.40
2022-12-28T20:44:28.364Z,11.40
2022-12-28T20:46:56.489Z,11.40
2022-12-28T20:49:25.175Z,11.40
2022-12-28T20:51:53.129Z,11.40
2022-12-28T20:54:20.456Z,11.30
2022-12-28T20:56:54.417Z,11.30
2022-12-28T20:59:24.904Z,11.30
2022-12-28T21:01:52.328Z,11.40
2022-12-28T21:04:19.472Z,11.40
2022-12-28T21:06:46.456Z,11.50
2022-12-28T21:09:13.637Z,11.50
2022-12-28T21:11:41.553Z,11.50
2022-12-28T21:14:08.539Z,11.50
2022-12-28T21:16:35.544Z,11.50
2022-12-28T21:19:04.532Z,11.50
2022-12-28T21:21:31.385Z,11.60
2022-12-28T21:23:58.709Z,11.50
2022-12-28T21:26:26.545Z,11.50
2022-12-28T21:28:53.515Z,11.50
2022-12-28T21:31:21.560Z,11.50
2022-12-28T21:33:49.500Z,11.50
2022-12-28T21:36:19.189Z,11.60
2022-12-28T21:38:49.449Z,11.50
2022-12-28T21:41:48.099Z,11.50
2022-12-28T21:44:24.449Z,11.60
2022-12-28T21:46:52.569Z,11.50
2022-12-28T21:49:21.689Z,11.60
2022-12-28T21:51:48.622Z,11.50
2022-12-28T21:54:21.337Z,11.60
2022-12-28T21:56:52.661Z,11.50
2022-12-28T21:59:24.792Z,11.50
2022-12-28T22:02:12.222Z,11.50
2022-12-28T22:05:03.587Z,11.50
2022-12-28T22:07:31.274Z,11.50
2022-12-28T22:10:17.764Z,11.50
2022-12-28T22:12:54.810Z,11.50
2022-12-28T22:15:43.946Z,11.60
2022-12-28T22:19:00.962Z,11.60
2022-12-28T22:21:10.305Z,11.60
2022-12-28T22:23:37.128Z,11.50
2022-12-28T22:26:04.197Z,11.50
2022-12-28T22:28:34.204Z,11.50
2022-12-28T22:31:05.677Z,11.40
2022-12-28T22:33:32.755Z,11.30
2022-12-28T22:40:01.822Z,11.10
2022-12-28T22:42:30.639Z,11.10
2022-12-28T22:44:57.862Z,11.00
2022-12-28T22:47:27.673Z,11.00
2022-12-28T22:49:54.778Z,11.10
2022-12-28T22:52:21.978Z,11.00
2022-12-28T22:54:48.858Z,11.00
2022-12-28T22:57:16.116Z,11.10
2022-12-28T22:59:43.014Z,11.20
2022-12-28T23:02:11.088Z,11.20
2022-12-28T23:04:39.133Z,11.30
2022-12-28T23:07:08.973Z,11.30
2022-12-28T23:09:36.953Z,11.40
2022-12-28T23:12:05.433Z,11.40
2022-12-28T23:14:50.703Z,11.40
2022-12-28T23:17:17.825Z,11.50
2022-12-28T23:20:05.446Z,11.50
2022-12-28T23:22:53.388Z,11.50
2022-12-28T23:25:42.451Z,11.60
2022-12-28T23:28:15.323Z,11.60
2022-12-28T23:30:48.180Z,11.70
2022-12-28T23:33:16.243Z,11.70
2022-12-28T23:35:43.504Z,11.70
2022-12-28T23:38:10.799Z,11.70
2022-12-28T23:40:41.697Z,11.70
2022-12-28T23:43:08.985Z,11.70
2022-12-28T23:45:36.416Z,11.70
2022-12-28T23:48:04.550Z,11.70
2022-12-28T23:50:31.703Z,11.70
2022-12-28T23:52:58.672Z,11.70
2022-12-28T23:55:25.679Z,11.70
2022-12-28T23:57:54.089Z,11.60
